Levante — 9HOB7 — position and weather

sailwx.info

Track history (hours):
 
Tides and Currents Weather Stations Pressure Air Temp Water Temp Dewpoint Dewpoint Depression Visibility Wind Speed Wind Dir Waves Ship Positions

Levante

Last reported at 2015-Mar-25 03:19 UTC. Time now 2015-Mar-31 22:05 UTC.
Position N 27°08' W 079°49'.

Length 188.3 m; beam 28 m; draft 10.1 m.

Type: Ship. MMSI: 215440000.

Date/timePositionNaut miles runAvg speedWind from/ knotsBaromVisibWave heightAir tempDewpointWater temp
2015-Mar-25 03:19N 27°08' W 079°49'1013.2
2015-Mar-25 02:33N 26°57' W 079°49'1813.5
2015-Mar-25 01:12N 26°39' W 079°49'914.4
2015-Mar-25 00:33N 26°30' W 079°49'1515.1
2015-Mar-24 23:33N 26°15' W 079°49'1515.4
2015-Mar-24 22:33N 25°59' W 079°49'1615.7
2015-Mar-24 21:33N 25°44' W 079°49'196 6.3
2015-Mar-23 14:21N 27°18' W 083°01'34 9.0
2015-Mar-23 10:30N 27°42' W 082°33'8 8.9
2015-Mar-23 09:33N 27°48' W 082°27'3 2.5
2015-Mar-23 08:31N 27°48' W 082°25'0 0.0
2015-Mar-23 07:25N 27°48' W 082°25'0 0.0
2015-Mar-23 06:31N 27°48' W 082°25'0 0.0
2015-Mar-23 05:31N 27°48' W 082°25'0 0.0
2015-Mar-23 04:31N 27°48' W 082°25'0 0.0
2015-Mar-23 03:31N 27°48' W 082°25'0 0.0
2015-Mar-23 02:31N 27°48' W 082°25'0 0.0
2015-Mar-23 01:31N 27°48' W 082°25'0 0.0
2015-Mar-23 00:28N 27°48' W 082°25'0 0.0
2015-Mar-22 23:28N 27°48' W 082°25'0 0.0
2015-Mar-22 22:31N 27°48' W 082°25'0 0.0
2015-Mar-22 21:31N 27°48' W 082°25'0 0.0
2015-Mar-22 20:31N 27°48' W 082°25'0 0.0
2015-Mar-22 19:31N 27°48' W 082°25'0 0.0
2015-Mar-22 18:31N 27°48' W 082°25'0 0.0
2015-Mar-22 17:31N 27°48' W 082°25'0 0.0
2015-Mar-22 16:25N 27°48' W 082°25'0 0.0
2015-Mar-22 15:28N 27°48' W 082°25'0 0.0
2015-Mar-22 14:31N 27°48' W 082°25'0 0.2
2015-Mar-22 13:33N 27°48' W 082°25'6 6.1
2015-Mar-22 12:33N 27°47' W 082°31'9 9.3
2015-Mar-22 11:33N 27°39' W 082°37'9 9.0
2015-Mar-22 10:31N 27°37' W 082°47'1010.8
2015-Mar-22 09:34N 27°35' W 082°59'5 5.2
2015-Mar-22 08:33N 27°38' W 083°04'0 0.1
2015-Mar-22 07:13N 27°37' W 083°04'0 0.0
2015-Mar-22 05:28N 27°37' W 083°04'1 0.0
2015-Mar-21 08:33N 27°37' W 083°05'8 7.9
2015-Mar-21 07:32N 27°36' W 083°14'1412.4
2015-Mar-21 06:26N 27°36' W 083°29'1112.4
2015-Mar-21 05:33N 27°36' W 083°41'1312.6
2015-Mar-21 04:33N 27°36' W 083°56'1312.7
2015-Mar-21 03:33N 27°36' W 084°10'1312.7
2015-Mar-21 02:33N 27°36' W 084°24'3912.6
2015-Mar-20 23:26N 27°39' W 085°09'52512.0
2015-Mar-19 03:33N 29°30' W 094°53'1110.5
2015-Mar-19 02:33N 29°40' W 094°58'8 7.7
2015-Mar-19 01:33N 29°46' W 095°04'2 1.8
2015-Mar-19 00:20N 29°45' W 095°07'0 0.0
2015-Mar-18 23:32N 29°45' W 095°07'0 0.0
2015-Mar-18 14:30N 29°45' W 095°07'0 0.0
2015-Mar-18 13:31N 29°45' W 095°07'0 0.0
2015-Mar-18 12:28N 29°45' W 095°07'0 0.0
2015-Mar-18 09:31N 29°45' W 095°07'0 0.0
2015-Mar-18 08:28N 29°45' W 095°07'4013.0
2015-Mar-18 05:22N 29°05' W 095°01'4038.5
2015-Mar-18 04:19N 29°45' W 095°07'0 0.0
2015-Mar-18 02:30N 29°45' W 095°07'0 0.0
2015-Mar-18 01:18N 29°45' W 095°07'0 0.0
2015-Mar-18 00:24N 29°45' W 095°07'0 0.0
2015-Mar-17 23:33N 29°45' W 095°07'0 0.0
2015-Mar-17 22:24N 29°45' W 095°07'0 0.0
2015-Mar-17 21:33N 29°45' W 095°07'0 0.0
2015-Mar-17 20:12N 29°45' W 095°07'0 0.0
2015-Mar-17 19:33N 29°45' W 095°07'0 0.0
2015-Mar-17 18:33N 29°45' W 095°07'0 0.0
2015-Mar-17 17:33N 29°45' W 095°07'0 0.0
2015-Mar-17 16:30N 29°45' W 095°07'0 0.0
2015-Mar-17 15:33N 29°45' W 095°07'0 0.0
2015-Mar-17 14:33N 29°45' W 095°07'0 0.0
2015-Mar-17 13:33N 29°45' W 095°07'0 0.0
2015-Mar-17 12:28N 29°45' W 095°07'0 0.0
2015-Mar-17 11:31N 29°45' W 095°07'0 0.0
2015-Mar-17 10:25N 29°45' W 095°07'0 0.0
2015-Mar-17 09:31N 29°45' W 095°07'0 0.5
2015-Mar-17 08:32N 29°45' W 095°06'5 5.1
2015-Mar-17 07:34N 29°42' W 095°01'9 9.2
2015-Mar-17 06:33N 29°34' W 094°56'1110.7
2015-Mar-17 05:33N 29°25' W 094°50'  
Track history (hours):
 
Tides and Currents Weather Stations Pressure Air Temp Water Temp Dewpoint Dewpoint Depression Visibility Wind Speed Wind Dir Waves Ship Positions

Levante

Last reported at 2015-Mar-25 03:19 UTC. Time now 2015-Mar-31 22:05 UTC.
Position N 27°08' W 079°49'.

Length 188.3 m; beam 28 m; draft 10.1 m.

Type: Ship. MMSI: 215440000.

Date/timePositionNaut miles runAvg speedWind from/ knotsBaromVisibWave heightAir tempDewpointWater temp
2015-Mar-25 03:19N 27°08' W 079°49'1013.2
2015-Mar-25 02:33N 26°57' W 079°49'1813.5
2015-Mar-25 01:12N 26°39' W 079°49'914.4
2015-Mar-25 00:33N 26°30' W 079°49'1515.1
2015-Mar-24 23:33N 26°15' W 079°49'1515.4
2015-Mar-24 22:33N 25°59' W 079°49'1615.7
2015-Mar-24 21:33N 25°44' W 079°49'196 6.3
2015-Mar-23 14:21N 27°18' W 083°01'34 9.0
2015-Mar-23 10:30N 27°42' W 082°33'8 8.9
2015-Mar-23 09:33N 27°48' W 082°27'3 2.5
2015-Mar-23 08:31N 27°48' W 082°25'0 0.0
2015-Mar-23 07:25N 27°48' W 082°25'0 0.0
2015-Mar-23 06:31N 27°48' W 082°25'0 0.0
2015-Mar-23 05:31N 27°48' W 082°25'0 0.0
2015-Mar-23 04:31N 27°48' W 082°25'0 0.0
2015-Mar-23 03:31N 27°48' W 082°25'0 0.0
2015-Mar-23 02:31N 27°48' W 082°25'0 0.0
2015-Mar-23 01:31N 27°48' W 082°25'0 0.0
2015-Mar-23 00:28N 27°48' W 082°25'0 0.0
2015-Mar-22 23:28N 27°48' W 082°25'0 0.0
2015-Mar-22 22:31N 27°48' W 082°25'0 0.0
2015-Mar-22 21:31N 27°48' W 082°25'0 0.0
2015-Mar-22 20:31N 27°48' W 082°25'0 0.0
2015-Mar-22 19:31N 27°48' W 082°25'0 0.0
2015-Mar-22 18:31N 27°48' W 082°25'0 0.0
2015-Mar-22 17:31N 27°48' W 082°25'0 0.0
2015-Mar-22 16:25N 27°48' W 082°25'0 0.0
2015-Mar-22 15:28N 27°48' W 082°25'0 0.0
2015-Mar-22 14:31N 27°48' W 082°25'0 0.2
2015-Mar-22 13:33N 27°48' W 082°25'6 6.1
2015-Mar-22 12:33N 27°47' W 082°31'9 9.3
2015-Mar-22 11:33N 27°39' W 082°37'9 9.0
2015-Mar-22 10:31N 27°37' W 082°47'1010.8
2015-Mar-22 09:34N 27°35' W 082°59'5 5.2
2015-Mar-22 08:33N 27°38' W 083°04'0 0.1
2015-Mar-22 07:13N 27°37' W 083°04'0 0.0
2015-Mar-22 05:28N 27°37' W 083°04'1 0.0
2015-Mar-21 08:33N 27°37' W 083°05'8 7.9
2015-Mar-21 07:32N 27°36' W 083°14'1412.4
2015-Mar-21 06:26N 27°36' W 083°29'1112.4
2015-Mar-21 05:33N 27°36' W 083°41'1312.6
2015-Mar-21 04:33N 27°36' W 083°56'1312.7
2015-Mar-21 03:33N 27°36' W 084°10'1312.7
2015-Mar-21 02:33N 27°36' W 084°24'3912.6
2015-Mar-20 23:26N 27°39' W 085°09'52512.0
2015-Mar-19 03:33N 29°30' W 094°53'1110.5
2015-Mar-19 02:33N 29°40' W 094°58'8 7.7
2015-Mar-19 01:33N 29°46' W 095°04'2 1.8
2015-Mar-19 00:20N 29°45' W 095°07'0 0.0
2015-Mar-18 23:32N 29°45' W 095°07'0 0.0
2015-Mar-18 14:30N 29°45' W 095°07'0 0.0
2015-Mar-18 13:31N 29°45' W 095°07'0 0.0
2015-Mar-18 12:28N 29°45' W 095°07'0 0.0
2015-Mar-18 09:31N 29°45' W 095°07'0 0.0
2015-Mar-18 08:28N 29°45' W 095°07'4013.0
2015-Mar-18 05:22N 29°05' W 095°01'4038.5
2015-Mar-18 04:19N 29°45' W 095°07'0 0.0
2015-Mar-18 02:30N 29°45' W 095°07'0 0.0
2015-Mar-18 01:18N 29°45' W 095°07'0 0.0
2015-Mar-18 00:24N 29°45' W 095°07'0 0.0
2015-Mar-17 23:33N 29°45' W 095°07'0 0.0
2015-Mar-17 22:24N 29°45' W 095°07'0 0.0
2015-Mar-17 21:33N 29°45' W 095°07'0 0.0
2015-Mar-17 20:12N 29°45' W 095°07'0 0.0
2015-Mar-17 19:33N 29°45' W 095°07'0 0.0
2015-Mar-17 18:33N 29°45' W 095°07'0 0.0
2015-Mar-17 17:33N 29°45' W 095°07'0 0.0
2015-Mar-17 16:30N 29°45' W 095°07'0 0.0
2015-Mar-17 15:33N 29°45' W 095°07'0 0.0
2015-Mar-17 14:33N 29°45' W 095°07'0 0.0
2015-Mar-17 13:33N 29°45' W 095°07'0 0.0
2015-Mar-17 12:28N 29°45' W 095°07'0 0.0
2015-Mar-17 11:31N 29°45' W 095°07'0 0.0
2015-Mar-17 10:25N 29°45' W 095°07'0 0.0
2015-Mar-17 09:31N 29°45' W 095°07'0 0.5
2015-Mar-17 08:32N 29°45' W 095°06'5 5.1
2015-Mar-17 07:34N 29°42' W 095°01'9 9.2
2015-Mar-17 06:33N 29°34' W 094°56'1110.7
2015-Mar-17 05:33N 29°25' W 094°50'  

Dump ship's entire track history